Time;durP1;ratioP1;P1;durP2;ratioP2;P2;SDS_P1;SDS_P2;PMS_P1;PMS_P2;Temp;Humidity;BMP_temperature;BMP_pressure;BME280_temperature;BME280_humidity;BME280_pressure;Samples;Min_cycle;Max_cycle;Signal;HPM_P1;HPM_P2
2023/09/07 00:00:42;;;;;;;8.05;7.25;;;;;;;20.14;65.21;95345.44;5121668;27;20195;-66
2023/09/07 00:03:10;;;;;;;7.72;7.13;;;;;;;20.14;64.88;95351.03;5122201;27;20199;-66
2023/09/07 00:05:37;;;;;;;9.95;6.82;;;;;;;20.13;65.13;95344.66;5139628;27;20190;-66
2023/09/07 00:08:05;;;;;;;7.85;7.10;;;;;;;20.12;65.00;95343.06;5139624;27;20254;-66
2023/09/07 00:10:35;;;;;;;7.97;7.18;;;;;;;20.09;64.91;95341.06;5121403;27;20198;-66
2023/09/07 00:13:02;;;;;;;8.07;7.38;;;;;;;20.09;65.05;95335.47;5139593;27;20175;-66
2023/09/07 00:15:28;;;;;;;7.55;6.88;;;;;;;20.08;64.68;95330.25;5121377;27;20614;-66
2023/09/07 00:17:56;;;;;;;8.02;7.35;;;;;;;20.10;65.08;95337.06;5139548;27;20179;-67
2023/09/07 00:20:25;;;;;;;8.07;7.25;;;;;;;20.07;65.18;95337.88;5121319;27;20199;-67
2023/09/07 00:22:51;;;;;;;8.00;7.25;;;;;;;20.11;64.97;95343.44;5139608;27;20299;-67
2023/09/07 00:25:20;;;;;;;8.38;7.45;;;;;;;20.10;64.69;95351.06;5138977;27;20260;-66
2023/09/07 00:27:46;;;;;;;8.63;7.82;;;;;;;20.09;64.60;95341.06;5121491;27;20243;-66
2023/09/07 00:30:14;;;;;;;8.10;7.30;;;;;;;20.08;65.12;95339.47;5138753;27;20235;-66
2023/09/07 00:32:41;;;;;;;7.95;7.35;;;;;;;20.09;64.82;95341.06;5138856;27;20210;-65
2023/09/07 00:35:08;;;;;;;8.00;7.20;;;;;;;20.08;65.08;95336.69;5138909;27;20679;-65
2023/09/07 00:37:36;;;;;;;7.50;6.90;;;;;;;20.09;65.12;95334.66;5138817;27;20656;-65
2023/09/07 00:40:04;;;;;;;7.63;7.03;;;;;;;20.08;65.62;95333.88;5120803;27;20191;-66
2023/09/07 00:42:30;;;;;;;8.43;7.72;;;;;;;20.07;65.65;95343.47;5120832;27;20210;-66
2023/09/07 00:44:57;;;;;;;8.95;8.15;;;;;;;20.07;65.98;95342.66;5139105;27;20263;-66
2023/09/07 00:47:24;;;;;;;8.60;7.80;;;;;;;20.05;66.32;95334.69;5138924;27;20187;-66
2023/09/07 00:49:51;;;;;;;8.57;7.85;;;;;;;20.03;66.40;95330.69;5138469;27;20190;-66
2023/09/07 00:52:19;;;;;;;9.23;8.30;;;;;;;20.02;66.48;95329.91;5138686;27;20194;-66
2023/09/07 00:54:47;;;;;;;8.75;7.90;;;;;;;20.00;66.83;95335.09;5120666;27;20198;-66
2023/09/07 00:57:14;;;;;;;9.57;8.20;;;;;;;19.99;66.76;95338.31;5138629;27;20202;-66
2023/09/07 00:59:40;;;;;;;8.90;8.00;;;;;;;19.99;67.26;95332.72;5120761;27;20202;-66
2023/09/07 01:02:07;;;;;;;8.65;7.95;;;;;;;19.97;66.96;95330.31;5120625;27;20219;-66
2023/09/07 01:04:34;;;;;;;8.32;7.65;;;;;;;19.97;66.82;95324.72;5138282;27;20190;-66
2023/09/07 01:07:04;;;;;;;9.30;8.25;;;;;;;19.98;67.33;95328.34;5121085;27;20199;-66
2023/09/07 01:09:33;;;;;;;9.02;8.23;;;;;;;19.94;67.46;95334.75;5120422;27;20233;-66
2023/09/07 01:12:01;;;;;;;9.45;8.65;;;;;;;19.93;67.41;95324.75;5138637;27;20194;-66
2023/09/07 01:14:28;;;;;;;9.68;8.80;;;;;;;19.93;67.47;95321.97;5120080;27;20220;-66
2023/09/07 01:16:55;;;;;;;9.95;9.15;;;;;;;19.91;67.83;95329.16;5138252;27;20187;-66
2023/09/07 01:19:21;;;;;;;9.43;8.52;;;;;;;19.90;67.73;95324.78;5119911;27;20628;-66
2023/09/07 01:21:50;;;;;;;10.10;9.18;;;;;;;19.93;67.98;95327.56;5137760;27;20211;-66
2023/09/07 01:24:17;;;;;;;10.55;9.57;;;;;;;19.88;68.52;95321.56;5120073;27;20220;-66
2023/09/07 01:26:49;;;;;;;11.13;9.57;;;;;;;19.87;68.16;95329.19;5137657;27;20514;-66
2023/09/07 01:29:16;;;;;;;10.70;9.80;;;;;;;19.88;68.30;95327.97;5116485;28;20227;-66
2023/09/07 01:31:43;;;;;;;10.48;9.57;;;;;;;19.87;68.67;95329.19;5117377;28;20287;-66
2023/09/07 01:34:10;;;;;;;9.75;8.65;;;;;;;19.88;68.42;95333.56;5116604;28;20202;-66
2023/09/07 01:36:37;;;;;;;10.90;9.80;;;;;;;19.89;68.31;95325.97;5115957;28;20195;-66
2023/09/07 01:39:06;;;;;;;11.13;9.88;;;;;;;19.84;68.39;95323.59;5117003;28;20218;-66
2023/09/07 01:41:34;;;;;;;10.07;9.07;;;;;;;19.80;69.02;95332.00;5117245;28;20204;-66
2023/09/07 01:44:01;;;;;;;10.35;9.45;;;;;;;19.83;68.70;95330.41;5116877;28;20221;-66
2023/09/07 01:46:27;;;;;;;10.13;9.15;;;;;;;19.80;68.76;95336.81;5116409;28;20210;-66
2023/09/07 01:48:54;;;;;;;10.73;9.63;;;;;;;19.74;69.29;95333.63;5116559;28;20252;-66
2023/09/07 01:51:21;;;;;;;9.23;8.52;;;;;;;19.73;69.07;95328.44;5116175;28;20196;-66
2023/09/07 01:53:48;;;;;;;10.23;9.32;;;;;;;19.75;69.01;95328.81;5116074;28;20207;-66
2023/09/07 01:56:16;;;;;;;11.10;10.07;;;;;;;19.67;69.66;95331.66;5116053;28;20248;-66
2023/09/07 01:58:43;;;;;;;10.65;9.55;;;;;;;19.60;70.60;95331.63;5116013;28;20199;-67
2023/09/07 02:01:21;;;;;;;10.23;9.43;;;;;;;19.53;70.96;95331.66;5116691;28;20185;-66
2023/09/07 02:03:48;;;;;;;11.27;10.25;;;;;;;19.56;70.98;95327.25;5116952;28;20547;-66
2023/09/07 02:06:15;;;;;;;10.90;9.80;;;;;;;19.52;71.22;95324.47;5115927;28;20203;-66
2023/09/07 02:08:42;;;;;;;11.45;10.32;;;;;;;19.48;71.60;95326.50;5115919;28;20272;-66
2023/09/07 02:11:09;;;;;;;11.77;10.63;;;;;;;19.43;72.19;95324.13;5116301;28;20203;-66
2023/09/07 02:13:37;;;;;;;11.73;10.63;;;;;;;19.45;71.60;95328.09;5116044;28;20249;-66
2023/09/07 02:16:05;;;;;;;11.27;10.23;;;;;;;19.51;71.02;95325.69;5116450;28;20603;-66
2023/09/07 02:18:33;;;;;;;11.60;10.65;;;;;;;19.51;71.00;95330.50;5115706;28;20199;-66
2023/09/07 02:21:03;;;;;;;11.57;10.57;;;;;;;19.48;71.40;95343.28;5115684;28;20241;-66
2023/09/07 02:23:30;;;;;;;10.98;9.98;;;;;;;19.49;71.27;95340.06;5116348;28;20215;-66
2023/09/07 02:25:57;;;;;;;11.73;10.73;;;;;;;19.49;71.31;95336.47;5116592;28;20213;-66
2023/09/07 02:28:24;;;;;;;11.63;10.52;;;;;;;19.46;71.81;95335.31;5116622;28;20276;-66
2023/09/07 02:30:52;;;;;;;12.18;11.07;;;;;;;19.49;71.44;95342.06;5115134;28;20231;-66
2023/09/07 02:33:19;;;;;;;11.93;10.82;;;;;;;19.47;71.80;95342.47;5116298;27;20196;-66
2023/09/07 02:35:46;;;;;;;12.25;11.15;;;;;;;19.49;71.44;95342.06;5115886;28;20596;-66
2023/09/07 02:38:13;;;;;;;12.05;10.95;;;;;;;19.48;71.96;95343.28;5115005;28;20599;-66
2023/09/07 02:40:43;;;;;;;12.00;10.95;;;;;;;19.47;71.87;95341.69;5116167;28;20191;-66
2023/09/07 02:43:10;;;;;;;11.60;10.60;;;;;;;19.46;72.20;95343.69;5115730;28;20215;-66
2023/09/07 02:45:37;;;;;;;11.82;10.73;;;;;;;19.41;72.36;95348.88;5116065;28;20191;-66
2023/09/07 02:48:07;;;;;;;11.10;10.13;;;;;;;19.43;72.21;95349.31;5114750;28;20694;-66
2023/09/07 02:51:03;;;;;;;12.90;10.48;;;;;;;19.46;72.07;95348.47;5115960;28;20179;-66
2023/09/07 02:53:30;;;;;;;12.57;11.43;;;;;;;19.44;72.20;95345.28;5116021;28;20238;-66
2023/09/07 02:55:57;;;;;;;11.93;10.77;;;;;;;19.42;72.09;95348.47;5115244;28;20188;-66
2023/09/07 02:58:24;;;;;;;11.77;10.68;;;;;;;19.44;71.88;95342.50;5114850;28;20200;-66
2023/09/07 03:00:51;;;;;;;12.60;11.40;;;;;;;19.45;71.99;95358.06;5114952;28;20280;-66
2023/09/07 03:03:20;;;;;;;12.75;11.55;;;;;;;19.45;72.10;95346.88;5114983;28;20204;-66
2023/09/07 03:05:47;;;;;;;16.63;11.00;;;;;;;19.42;72.03;95347.69;5115092;28;20203;-66
2023/09/07 03:08:14;;;;;;;12.80;11.60;;;;;;;19.42;72.28;95358.88;5115566;28;20176;-66
2023/09/07 03:10:40;;;;;;;12.00;10.80;;;;;;;19.42;71.91;95353.28;5114747;28;20286;-67
2023/09/07 03:13:07;;;;;;;12.10;10.90;;;;;;;19.41;72.37;95351.69;5115659;28;20195;-66
2023/09/07 03:15:34;;;;;;;12.80;11.70;;;;;;;19.39;72.45;95356.88;5116037;28;20184;-66
2023/09/07 03:18:01;;;;;;;13.10;12.00;;;;;;;19.37;72.56;95350.91;5115003;28;20195;-66
2023/09/07 03:20:30;;;;;;;12.30;11.27;;;;;;;19.35;73.05;95359.69;5115709;28;20290;-66
2023/09/07 03:22:57;;;;;;;13.07;11.63;;;;;;;19.35;72.83;95353.28;5115092;28;20212;-66
2023/09/07 03:25:24;;;;;;;13.10;11.88;;;;;;;19.33;73.38;95350.91;5115178;28;20192;-66
2023/09/07 03:27:51;;;;;;;13.57;12.27;;;;;;;19.32;73.43;95351.28;5114782;28;20203;-67
2023/09/07 03:30:18;;;;;;;12.90;11.57;;;;;;;19.30;73.59;95357.31;5130240;27;20238;-66
2023/09/07 03:32:46;;;;;;;13.38;11.95;;;;;;;19.29;73.35;95366.91;5136182;28;20185;-66
2023/09/07 03:35:12;;;;;;;13.32;12.23;;;;;;;19.30;73.48;95356.50;5136144;28;20225;-67
2023/09/07 03:37:43;;;;;;;13.40;11.98;;;;;;;19.28;73.80;95361.69;5136139;28;20210;-66
2023/09/07 03:40:10;;;;;;;13.13;11.80;;;;;;;19.26;73.86;95367.69;5117916;28;20191;-66
2023/09/07 03:42:37;;;;;;;13.82;12.52;;;;;;;19.25;74.22;95363.31;5117851;28;20218;-66
2023/09/07 03:45:05;;;;;;;14.00;12.60;;;;;;;19.21;74.82;95362.53;5136097;28;20229;-66
2023/09/07 03:47:31;;;;;;;13.45;12.25;;;;;;;19.20;74.74;95367.28;5117904;28;20203;-66
2023/09/07 03:49:58;;;;;;;13.82;12.63;;;;;;;19.21;74.71;95371.72;5135948;28;20198;-66
2023/09/07 03:52:26;;;;;;;13.13;11.90;;;;;;;19.19;75.30;95370.50;5117832;28;20223;-66
2023/09/07 03:54:55;;;;;;;14.50;13.10;;;;;;;19.19;75.17;95373.31;5136049;28;20197;-66
2023/09/07 03:57:21;;;;;;;13.90;12.65;;;;;;;19.16;75.58;95377.69;5136034;28;20285;-66
2023/09/07 03:59:49;;;;;;;13.80;12.60;;;;;;;19.15;75.81;95380.91;5117902;28;20202;-66
2023/09/07 04:02:17;;;;;;;13.88;12.68;;;;;;;19.06;76.79;95380.50;5117839;28;20249;-65
2023/09/07 04:04:44;;;;;;;15.23;13.82;;;;;;;19.07;76.50;95379.31;5117484;28;20551;-65
2023/09/07 04:07:11;;;;;;;14.05;12.65;;;;;;;19.05;76.90;95382.50;5117994;28;20187;-65
2023/09/07 04:09:37;;;;;;;14.75;13.25;;;;;;;19.01;77.29;95378.91;5135791;28;20176;-65
2023/09/07 04:12:07;;;;;;;14.07;12.88;;;;;;;19.04;77.65;95383.69;5135719;28;20184;-65
2023/09/07 04:14:34;;;;;;;13.50;12.40;;;;;;;18.96;77.67;95380.13;5119171;27;20248;-65
2023/09/07 04:17:00;;;;;;;14.82;13.32;;;;;;;18.97;77.73;95375.31;5139435;27;20191;-65
2023/09/07 04:19:27;;;;;;;14.55;13.18;;;;;;;18.99;77.49;95373.72;5139334;27;20191;-66
2023/09/07 04:21:54;;;;;;;14.07;12.77;;;;;;;18.95;77.54;95374.91;5139279;27;20236;-66
2023/09/07 04:24:21;;;;;;;14.52;12.98;;;;;;;18.95;77.91;95375.72;5139004;27;20210;-66
2023/09/07 04:26:48;;;;;;;13.93;12.68;;;;;;;18.94;77.53;95378.91;5121375;27;20206;-65
2023/09/07 04:29:17;;;;;;;14.48;13.18;;;;;;;18.97;77.41;95372.53;5139359;27;20243;-65
2023/09/07 04:31:44;;;;;;;13.68;12.38;;;;;;;19.01;77.44;95370.53;5139351;27;20206;-66
2023/09/07 04:34:11;;;;;;;14.05;12.75;;;;;;;19.01;77.50;95381.69;5139147;27;20264;-66
2023/09/07 04:36:37;;;;;;;13.70;12.38;;;;;;;19.02;77.23;95377.69;5121092;27;20251;-66
2023/09/07 04:39:04;;;;;;;13.57;12.38;;;;;;;19.04;76.86;95372.53;5139251;27;20187;-66
2023/09/07 04:41:31;;;;;;;13.23;12.02;;;;;;;19.07;76.84;95380.09;5139046;27;20199;-66
2023/09/07 04:43:58;;;;;;;13.95;12.70;;;;;;;19.07;76.85;95382.91;5120837;27;20206;-66
2023/09/07 04:46:26;;;;;;;13.93;12.73;;;;;;;19.08;76.58;95392.09;5138878;27;20183;-73
2023/09/07 04:48:53;;;;;;;14.45;13.05;;;;;;;19.12;76.36;95385.28;5120606;27;20236;-67
2023/09/07 04:51:21;;;;;;;18.13;16.30;;;;;;;19.15;76.04;95390.09;5120540;27;20203;-67
2023/09/07 04:53:48;;;;;;;11.45;10.30;;;;;;;19.20;75.75;95384.06;5138710;27;20214;-69
2023/09/07 04:56:16;;;;;;;13.05;11.82;;;;;;;19.70;74.04;95391.59;5120762;27;20191;-67
2023/09/07 04:58:42;;;;;;;13.95;12.50;;;;;;;20.12;71.58;95390.66;5120700;27;20206;-70
2023/09/07 05:01:10;;;;;;;13.73;12.32;;;;;;;20.28;70.71;95383.78;5120893;27;20209;-66
2023/09/07 05:03:39;;;;;;;14.60;13.20;;;;;;;20.17;71.02;95390.22;5138656;27;20210;-68
2023/09/07 05:06:07;;;;;;;13.43;12.07;;;;;;;19.94;71.80;95387.94;5138677;27;20213;-68
2023/09/07 05:08:33;;;;;;;14.05;12.75;;;;;;;19.76;73.12;95397.59;5138412;27;20184;-67
2023/09/07 05:11:02;;;;;;;14.93;13.18;;;;;;;19.63;73.50;95389.63;5138923;27;20206;-67
2023/09/07 05:13:29;;;;;;;14.10;12.90;;;;;;;19.56;73.60;95391.63;5120655;27;20206;-67
2023/09/07 05:15:57;;;;;;;14.20;12.90;;;;;;;19.49;74.22;95392.41;5120513;27;20607;-67
2023/09/07 05:18:24;;;;;;;14.40;13.00;;;;;;;19.47;74.47;95392.84;5120472;27;20195;-67
2023/09/07 05:20:52;;;;;;;14.73;13.43;;;;;;;19.46;74.29;95398.81;5120600;27;20195;-66
2023/09/07 05:23:19;;;;;;;13.93;12.40;;;;;;;19.44;74.16;95396.44;5138494;27;20234;-66
2023/09/07 05:25:46;;;;;;;14.23;12.98;;;;;;;19.40;74.69;95397.66;5136801;27;20201;-66
2023/09/07 05:28:14;;;;;;;14.00;12.65;;;;;;;19.38;75.01;95405.63;5119820;27;20219;-67
2023/09/07 05:30:41;;;;;;;13.85;12.55;;;;;;;19.41;75.51;95408.41;5116588;28;20238;-66
2023/09/07 05:33:10;;;;;;;14.60;13.07;;;;;;;19.44;75.19;95406.81;5117143;28;20244;-67
2023/09/07 05:35:37;;;;;;;15.25;13.65;;;;;;;19.44;75.38;95404.03;5117547;28;20316;-67
2023/09/07 05:38:06;;;;;;;14.52;13.02;;;;;;;19.40;75.31;95401.25;5116419;28;20203;-66
2023/09/07 05:40:35;;;;;;;13.38;12.13;;;;;;;19.34;75.54;95400.03;5117276;28;20246;-66
2023/09/07 05:43:03;;;;;;;13.75;12.45;;;;;;;19.34;75.43;95400.03;5117463;28;20204;-67
2023/09/07 05:45:30;;;;;;;14.80;12.75;;;;;;;19.33;75.15;95401.25;5117104;28;20180;-66
2023/09/07 05:47:57;;;;;;;13.75;12.35;;;;;;;19.33;75.26;95406.84;5117093;28;20516;-67
2023/09/07 05:50:24;;;;;;;13.73;12.40;;;;;;;19.31;75.00;95406.44;5117120;28;20184;-67
2023/09/07 05:52:51;;;;;;;14.40;12.82;;;;;;;19.34;74.71;95402.03;5117477;28;20207;-68
2023/09/07 05:55:19;;;;;;;14.43;13.18;;;;;;;19.36;74.45;95403.25;5117172;28;20184;-72
2023/09/07 05:57:46;;;;;;;15.05;13.65;;;;;;;19.35;74.09;95406.44;5116192;28;20199;-69
2023/09/07 06:00:15;;;;;;;14.38;12.80;;;;;;;19.33;74.50;95406.03;5117218;28;20188;-66
2023/09/07 06:02:41;;;;;;;14.10;12.77;;;;;;;19.38;74.71;95408.44;5116430;28;20200;-68
2023/09/07 06:05:08;;;;;;;14.25;11.85;;;;;;;19.41;74.27;95416.81;5116479;28;20191;-67
2023/09/07 06:07:36;;;;;;;13.23;12.02;;;;;;;19.44;73.88;95407.63;5116536;28;20284;-66
2023/09/07 06:10:05;;;;;;;12.57;11.43;;;;;;;19.46;73.88;95419.22;5117546;28;20191;-68
2023/09/07 06:12:33;;;;;;;13.15;12.05;;;;;;;19.49;73.98;95412.78;5117453;28;20263;-68
2023/09/07 06:15:00;;;;;;;12.93;11.73;;;;;;;19.56;73.97;95411.19;5117331;28;20206;-67
2023/09/07 06:17:27;;;;;;;14.00;12.65;;;;;;;19.57;73.49;95413.59;5117450;28;20191;-67
2023/09/07 06:19:54;;;;;;;16.70;15.10;;;;;;;19.64;73.38;95413.59;5117416;28;20198;-67
2023/09/07 06:22:22;;;;;;;14.77;13.38;;;;;;;19.65;72.87;95415.22;5117288;28;20194;-67
2023/09/07 06:24:48;;;;;;;12.50;11.40;;;;;;;19.70;72.90;95414.78;5116080;28;20210;-67
2023/09/07 06:27:15;;;;;;;12.80;11.55;;;;;;;19.82;72.78;95415.56;5117122;28;20203;-67
2023/09/07 06:29:43;;;;;;;12.60;11.40;;;;;;;19.89;71.96;95421.13;5116459;28;20279;-67
2023/09/07 06:32:10;;;;;;;12.02;10.88;;;;;;;20.00;71.45;95416.28;5117538;28;20176;-66
2023/09/07 06:34:37;;;;;;;12.35;11.15;;;;;;;20.06;70.17;95414.66;5116656;28;20176;-67
2023/09/07 06:37:04;;;;;;;11.32;10.32;;;;;;;20.10;70.23;95415.44;5116896;28;20194;-68
2023/09/07 06:39:30;;;;;;;12.77;11.05;;;;;;;20.16;70.03;95416.63;5116223;28;20195;-67
2023/09/07 06:41:57;;;;;;;12.77;11.43;;;;;;;20.23;70.56;95415.81;5116160;28;20188;-68
2023/09/07 06:44:24;;;;;;;11.02;9.95;;;;;;;20.29;68.38;95416.16;5116005;28;20227;-68
2023/09/07 06:46:52;;;;;;;11.00;10.00;;;;;;;20.34;68.20;95416.56;5116016;28;20191;-67
2023/09/07 06:49:20;;;;;;;11.57;10.38;;;;;;;20.40;68.60;95423.31;5115875;28;20203;-66
2023/09/07 06:51:46;;;;;;;11.15;10.00;;;;;;;20.47;67.53;95424.47;5116062;28;20584;-68
2023/09/07 06:54:13;;;;;;;10.27;9.27;;;;;;;20.53;66.53;95423.69;5116354;28;20210;-66
2023/09/07 06:56:40;;;;;;;9.95;9.05;;;;;;;20.57;66.72;95416.03;5115563;28;20192;-68
2023/09/07 06:59:07;;;;;;;9.35;8.65;;;;;;;20.62;66.28;95418.41;5116349;28;20200;-67
2023/09/07 07:01:34;;;;;;;10.02;9.02;;;;;;;20.66;66.03;95416.41;5115609;28;20195;-66
2023/09/07 07:04:02;;;;;;;10.35;9.40;;;;;;;20.70;66.17;95421.16;5115132;28;20264;-67
2023/09/07 07:06:29;;;;;;;10.07;9.18;;;;;;;20.76;66.07;95416.72;5114887;28;20184;-66
2023/09/07 07:08:56;;;;;;;10.55;9.55;;;;;;;20.77;66.01;95419.13;5115419;28;20199;-66
2023/09/07 07:11:22;;;;;;;10.68;9.57;;;;;;;20.77;65.41;95421.13;5116090;28;20208;-67
2023/09/07 07:13:49;;;;;;;9.80;8.90;;;;;;;20.75;64.57;95417.94;5114959;28;20207;-68
2023/09/07 07:16:17;;;;;;;10.95;9.40;;;;;;;20.76;64.09;95419.53;5115717;28;20297;-68
2023/09/07 07:18:44;;;;;;;10.23;9.15;;;;;;;20.82;64.70;95426.31;5115941;28;20183;-66
2023/09/07 07:21:12;;;;;;;10.45;9.38;;;;;;;20.86;64.50;95427.06;5115290;28;20200;-66
2023/09/07 07:23:39;;;;;;;9.75;8.82;;;;;;;20.96;63.96;95428.22;5116215;28;20207;-66
2023/09/07 07:26:05;;;;;;;9.80;8.90;;;;;;;21.00;63.24;95435.41;5115029;28;20196;-65
2023/09/07 07:28:32;;;;;;;9.75;8.77;;;;;;;21.07;62.38;95434.53;5114625;28;20214;-65
2023/09/07 07:30:59;;;;;;;9.15;8.27;;;;;;;21.09;62.74;95438.50;5115660;28;20592;-65
2023/09/07 07:33:26;;;;;;;8.98;8.13;;;;;;;21.09;61.76;95444.13;5114674;28;20184;-66
2023/09/07 07:35:52;;;;;;;8.88;7.97;;;;;;;21.12;61.27;95442.50;5116197;28;20183;-67
2023/09/07 07:38:21;;;;;;;8.93;8.15;;;;;;;21.14;61.27;95443.69;5114937;28;20203;-66
2023/09/07 07:40:47;;;;;;;9.15;8.35;;;;;;;21.18;61.57;95443.66;5115317;28;20510;-67
2023/09/07 07:43:14;;;;;;;8.60;7.82;;;;;;;21.23;61.14;95440.41;5114999;28;20207;-68
2023/09/07 07:45:41;;;;;;;9.10;8.23;;;;;;;21.37;60.26;95445.13;5114979;28;20241;-68
2023/09/07 07:48:08;;;;;;;8.35;7.65;;;;;;;21.43;60.75;95437.09;5114631;28;20191;-68
2023/09/07 07:50:38;;;;;;;8.80;8.00;;;;;;;21.49;60.77;95444.63;5118268;28;20608;-69
2023/09/07 07:53:06;;;;;;;10.25;8.20;;;;;;;21.46;59.64;95450.25;5119906;28;20275;-69
2023/09/07 07:55:38;;;;;;;9.70;8.60;;;;;;;21.45;60.26;95446.66;5119224;28;20195;-69
2023/09/07 07:58:07;;;;;;;9.05;8.20;;;;;;;21.51;60.74;95452.66;5118954;28;20192;-68
2023/09/07 08:00:34;;;;;;;8.52;7.72;;;;;;;21.54;61.15;95449.81;5118504;28;20203;-69
2023/09/07 08:03:02;;;;;;;8.57;7.60;;;;;;;21.56;60.29;95444.56;5119661;28;20203;-68
2023/09/07 08:05:29;;;;;;;7.70;7.07;;;;;;;21.62;58.65;95451.31;5119559;28;20284;-68
2023/09/07 08:07:56;;;;;;;7.55;6.85;;;;;;;21.59;57.58;95448.56;5119270;28;20180;-68
2023/09/07 08:10:23;;;;;;;9.95;7.00;;;;;;;21.70;57.71;95445.63;5119313;28;20199;-68
2023/09/07 08:12:54;;;;;;;8.82;7.03;;;;;;;21.77;57.56;95442.75;5118423;28;20244;-68
2023/09/07 08:15:22;;;;;;;7.97;7.18;;;;;;;21.86;56.48;95446.69;5118662;28;20199;-68
2023/09/07 08:17:49;;;;;;;7.93;7.13;;;;;;;21.94;56.42;95443.81;5119012;28;20210;-67
2023/09/07 08:20:16;;;;;;;10.52;7.18;;;;;;;22.05;56.64;95438.84;5119124;28;20200;-69
2023/09/07 08:22:43;;;;;;;7.43;6.72;;;;;;;22.21;55.65;95436.28;5117911;28;20252;-68
2023/09/07 08:25:11;;;;;;;7.60;6.80;;;;;;;22.31;54.83;95432.53;5117781;28;20241;-69
2023/09/07 08:27:38;;;;;;;8.10;7.30;;;;;;;22.30;53.59;95435.78;5119015;27;20187;-69
2023/09/07 08:30:09;;;;;;;8.25;7.07;;;;;;;22.27;54.17;95434.59;5117820;28;20235;-68
2023/09/07 08:32:38;;;;;;;8.45;7.63;;;;;;;22.32;53.19;95431.31;5118558;28;20667;-68
2023/09/07 08:35:07;;;;;;;7.13;6.53;;;;;;;22.43;52.71;95433.19;5118846;27;20191;-66
2023/09/07 08:37:34;;;;;;;7.90;7.13;;;;;;;22.55;53.36;95433.44;5117808;28;20249;-71
2023/09/07 08:40:02;;;;;;;7.60;6.90;;;;;;;22.60;51.55;95432.19;5118464;28;20609;-71
2023/09/07 08:42:29;;;;;;;7.55;6.78;;;;;;;22.61;51.26;95442.19;5117831;28;20196;-71
2023/09/07 08:44:58;;;;;;;7.15;6.30;;;;;;;22.61;51.54;95433.75;5118217;28;20553;-68
2023/09/07 08:47:27;;;;;;;7.70;7.00;;;;;;;22.67;51.21;95436.91;5117725;28;20196;-72
2023/09/07 08:49:55;;;;;;;7.82;6.95;;;;;;;22.67;52.11;95425.66;5118791;28;20272;-70
2023/09/07 08:52:23;;;;;;;7.55;6.20;;;;;;;22.76;51.53;95423.91;5117568;28;20622;-70
2023/09/07 08:54:49;;;;;;;7.45;6.72;;;;;;;22.67;50.89;95432.06;5118655;28;20215;-68
2023/09/07 08:57:17;;;;;;;7.35;6.70;;;;;;;22.56;51.28;95425.81;5118229;28;20184;-67
2023/09/07 08:59:44;;;;;;;7.80;6.95;;;;;;;22.55;51.60;95424.22;5118205;28;20184;-67
2023/09/07 09:02:12;;;;;;;7.68;6.70;;;;;;;22.54;51.92;95419.81;5118302;28;20191;-67
2023/09/07 09:04:40;;;;;;;7.70;7.00;;;;;;;22.31;51.25;95432.53;5118014;27;20639;-67
2023/09/07 09:07:06;;;;;;;7.88;6.68;;;;;;;22.27;52.58;95423.38;5118325;28;20211;-67
2023/09/07 09:09:33;;;;;;;7.70;6.72;;;;;;;22.30;52.10;95427.34;5118070;28;20184;-67
2023/09/07 09:12:08;;;;;;;7.60;6.80;;;;;;;22.37;52.51;95420.81;5117926;28;20574;-67
2023/09/07 09:14:34;;;;;;;7.70;6.85;;;;;;;22.54;52.83;95417.78;5116675;28;20199;-66
2023/09/07 09:17:01;;;;;;;7.75;7.15;;;;;;;22.77;52.10;95424.72;5116948;28;20196;-66
2023/09/07 09:19:32;;;;;;;7.53;6.13;;;;;;;22.97;49.92;95419.22;5117185;28;20195;-66
2023/09/07 09:22:00;;;;;;;7.40;6.70;;;;;;;23.03;49.44;95420.34;5117482;28;20180;-67
2023/09/07 09:24:27;;;;;;;7.25;6.65;;;;;;;23.08;49.51;95417.03;5117570;28;20231;-67
2023/09/07 09:26:54;;;;;;;7.32;6.00;;;;;;;23.14;49.92;95418.16;5117688;28;20183;-67
2023/09/07 09:29:23;;;;;;;7.15;6.55;;;;;;;23.18;49.23;95416.06;5116775;28;20296;-66
2023/09/07 09:31:51;;;;;;;6.90;6.25;;;;;;;23.17;48.69;95419.31;5117614;28;20188;-68
2023/09/07 09:34:18;;;;;;;7.43;6.80;;;;;;;23.12;49.07;95414.16;5116122;28;20227;-71
2023/09/07 09:36:45;;;;;;;7.18;6.28;;;;;;;23.13;49.19;95418.56;5116651;28;20207;-67
2023/09/07 09:39:23;;;;;;;8.57;6.63;;;;;;;23.09;48.79;95410.19;5117566;28;20187;-67
2023/09/07 09:41:49;;;;;;;6.75;6.07;;;;;;;23.05;48.93;95407.41;5117592;28;20187;-67
2023/09/07 09:44:17;;;;;;;6.45;5.93;;;;;;;22.99;49.00;95403.50;5117084;28;20674;-65
2023/09/07 09:46:44;;;;;;;6.65;5.78;;;;;;;22.97;50.08;95405.16;5117526;28;20179;-66
2023/09/07 09:49:13;;;;;;;6.38;5.78;;;;;;;22.98;48.78;95404.72;5116656;28;20203;-65
2023/09/07 09:51:41;;;;;;;7.22;6.47;;;;;;;22.93;48.11;95398.78;5116969;28;20596;-65
2023/09/07 09:54:07;;;;;;;6.85;6.13;;;;;;;22.88;48.70;95402.84;5116451;28;20282;-65
2023/09/07 09:56:36;;;;;;;7.03;6.35;;;;;;;22.82;49.31;95396.91;5116121;28;20199;-65
2023/09/07 09:59:02;;;;;;;7.70;5.80;;;;;;;22.94;51.77;95406.78;5115719;28;20203;-65
2023/09/07 10:01:31;;;;;;;7.22;6.57;;;;;;;23.04;50.55;95405.03;5116143;28;20204;-65
2023/09/07 10:03:58;;;;;;;6.35;5.85;;;;;;;23.08;49.66;95400.16;5099351;28;20196;-65
2023/09/07 10:06:26;;;;;;;7.25;6.55;;;;;;;23.11;49.94;95398.50;5116809;28;20225;-65
2023/09/07 10:08:57;;;;;;;6.38;5.78;;;;;;;23.05;49.13;95398.97;5117088;28;20596;-65
2023/09/07 10:11:34;;;;;;;6.45;5.85;;;;;;;22.97;48.64;95388.28;5115267;28;20207;-65
2023/09/07 10:14:04;;;;;;;6.22;5.72;;;;;;;22.95;51.03;95393.53;5116430;28;20183;-65
2023/09/07 10:19:50;;;;;;;8.43;6.50;;;;;;;22.88;49.11;95396.44;5112732;28;20214;-65
2023/09/07 10:22:22;;;;;;;6.97;6.07;;;;;;;22.85;48.59;95384.03;5111213;28;20211;-64
2023/09/07 10:25:20;;;;;;;6.50;5.90;;;;;;;22.88;49.48;95385.19;5116543;28;20520;-68
2023/09/07 10:27:48;;;;;;;6.97;6.32;;;;;;;22.87;48.32;95375.16;5098558;28;20631;-68
2023/09/07 10:30:19;;;;;;;6.47;5.93;;;;;;;22.86;48.55;95385.59;5115150;28;20227;-67
2023/09/07 10:32:46;;;;;;;7.57;6.10;;;;;;;22.90;48.81;95374.28;5116086;28;20270;-67
2023/09/07 10:35:14;;;;;;;6.88;6.13;;;;;;;22.99;49.87;95375.38;5115890;28;20207;-67
2023/09/07 10:37:42;;;;;;;6.78;6.18;;;;;;;23.00;48.76;95376.19;5116083;28;20649;-67
2023/09/07 10:40:11;;;;;;;7.38;6.10;;;;;;;22.99;48.64;95380.22;5116048;28;20244;-67
2023/09/07 10:42:38;;;;;;;6.63;6.05;;;;;;;23.00;49.96;95376.19;5115213;28;20199;-67
2023/09/07 10:45:15;;;;;;;6.55;6.05;;;;;;;23.03;49.89;95372.53;5115515;28;20216;-67
2023/09/07 10:47:45;;;;;;;9.18;6.00;;;;;;;23.06;48.76;95371.66;5115137;28;20229;-67
2023/09/07 10:50:13;;;;;;;6.70;6.03;;;;;;;23.06;49.81;95369.66;5116138;28;20180;-67
2023/09/07 10:52:40;;;;;;;6.60;6.00;;;;;;;23.10;51.01;95374.44;5115028;28;20256;-67
2023/09/07 10:55:10;;;;;;;5.65;5.15;;;;;;;23.11;48.85;95382.44;5115109;28;20245;-67
2023/09/07 10:57:42;;;;;;;6.63;6.03;;;;;;;23.08;49.16;95374.03;5115300;28;20188;-67
2023/09/07 11:00:10;;;;;;;7.22;5.80;;;;;;;23.06;49.00;95374.47;5115261;28;20195;-67
2023/09/07 11:02:37;;;;;;;6.28;5.78;;;;;;;23.04;48.88;95372.06;5114873;28;20195;-67
2023/09/07 11:05:06;;;;;;;7.15;6.63;;;;;;;22.97;47.65;95377.03;5115979;28;20276;-67
2023/09/07 11:07:34;;;;;;;6.55;5.93;;;;;;;22.88;48.40;95373.94;5115789;28;20210;-66
2023/09/07 11:10:03;;;;;;;6.70;5.97;;;;;;;22.82;48.62;95377.22;5114818;28;20272;-66
2023/09/07 11:12:30;;;;;;;7.35;6.65;;;;;;;22.80;48.69;95367.59;5115653;28;20627;-66
2023/09/07 11:14:57;;;;;;;6.15;5.65;;;;;;;22.73;48.17;95367.72;5115121;28;20217;-66
2023/09/07 11:17:27;;;;;;;7.78;6.43;;;;;;;22.70;48.55;95366.56;5115955;28;20188;-66
2023/09/07 11:19:55;;;;;;;7.97;6.07;;;;;;;22.72;49.10;95366.13;5114771;28;20204;-64
2023/09/07 11:22:23;;;;;;;6.05;5.60;;;;;;;22.75;49.13;95365.28;5115828;28;20179;-67
2023/09/07 11:24:50;;;;;;;6.47;5.88;;;;;;;22.72;48.50;95366.94;5117799;28;20215;-67
2023/09/07 11:27:18;;;;;;;6.78;5.35;;;;;;;22.70;48.57;95358.13;5119448;28;20196;-66
2023/09/07 11:29:52;;;;;;;5.97;5.45;;;;;;;22.68;48.75;95359.78;5130341;27;20250;-67
2023/09/07 11:32:21;;;;;;;6.13;5.72;;;;;;;22.65;49.11;95361.41;5122332;27;20194;-67